Flight Track Log - Related Links

Times and Time Zones

All times are in EDT time to prevent confusion due to time zone crossing. See the N84XP flight status page for this flight to view local times or setup timezone preferences in your user account.

Time Position Orientation Groundspeed Altitude Reporting Facility
EDT Latitude Longitude Course Direction KTS MPH feet Rate Location/Type
Mon 04:04:32 PM 36.3881 -82.4500 194° South 173 199 5,100  Level Atlanta Center
Mon 04:05:31 PM 36.3422 -82.4664 196° South 173 199 7,100 2,067 Climbing Atlanta Center
Mon 04:06:31 PM 36.3031 -82.5033 217° Southwest 173 199 9,200 1,835 Climbing Atlanta Center
Mon 04:07:32 PM 36.2619 -82.5453 219° Southwest 188 216 10,800 1,800 Climbing Atlanta Center
Mon 04:08:31 PM 36.2186 -82.5872 218° Southwest 203 234 12,800 2,067 Climbing Atlanta Center
Mon 04:09:31 PM 36.1794 -82.6292 221° Southwest 198 228 14,900 2,033 Climbing Atlanta Center
Mon 04:10:32 PM 36.1467 -82.6683 224° Southwest 184 212 16,900 1,850 Climbing Atlanta Center
Mon 04:11:31 PM 36.1094 -82.7100 222° Southwest 184 212 18,600 1,563 Climbing Atlanta Center
Mon 04:12:31 PM 36.0683 -82.7544 221° Southwest 189 217 20,000 750 Climbing Atlanta Center
Mon 04:13:31 PM 36.0186 -82.8092 222° Southwest 221 254 20,100 50 Climbing Atlanta Center
Mon 04:14:31 PM 35.9714 -82.8764 229° Southwest 248 285 20,100 -50 Level Atlanta Center
Mon 04:15:31 PM 35.9219 -82.9439 228° Southwest 263 303 20,000 -50 Descending Atlanta Center
Mon 04:16:31 PM 35.8747 -83.0136 230° Southwest 268 308 20,000  Level Atlanta Center
Mon 04:17:31 PM 35.8272 -83.0808 229° Southwest 268 308 20,000  Level Atlanta Center
Mon 04:18:31 PM 35.7797 -83.1531 231° Southwest 268 308 20,000  Level Atlanta Center
Mon 04:19:32 PM 35.7342 -83.2175 229° Southwest 268 308 20,000  Level Atlanta Center
Mon 04:20:32 PM 35.6847 -83.2947 232° Southwest 273 314 20,000  Level Atlanta Center
Mon 04:21:32 PM 35.6372 -83.3617 229° Southwest 273 314 20,000  Level Atlanta Center
Mon 04:22:31 PM 35.5894 -83.4283 229° Southwest 268 308 20,000  Level Atlanta Center
Mon 04:23:31 PM 35.5439 -83.4950 230° Southwest 268 308 20,000  Level Atlanta Center
Mon 04:24:31 PM 35.4961 -83.5644 230° Southwest 262 302 20,000  Level Atlanta Center
Mon 04:25:32 PM 35.4506 -83.6308 230° Southwest 262 302 20,000  Level Atlanta Center
Mon 04:26:31 PM 35.4069 -83.7000 232° Southwest 262 302 20,000  Level Atlanta Center
Mon 04:27:31 PM 35.3611 -83.7689 231° Southwest 262 302 20,000  Level Atlanta Center
Mon 04:28:31 PM 35.3156 -83.8378 231° Southwest 262 302 20,000  Level Atlanta Center
Mon 04:29:31 PM 35.2717 -83.9064 232° Southwest 262 302 20,000  Level Atlanta Center
Mon 04:30:31 PM 35.2281 -83.9753 232° Southwest 262 302 20,000 -50 Level Atlanta Center
Mon 04:31:32 PM 35.1842 -84.0414 231° Southwest 262 302 19,900 -397 Descending Atlanta Center
Mon 04:32:32 PM 35.1383 -84.1150 233° Southwest 257 296 19,200 -706 Descending Atlanta Center
Mon 04:33:31 PM 35.0903 -84.1858 230° Southwest 264 304 18,500 -650 Descending Atlanta Center
Mon 04:34:32 PM 35.0464 -84.2544 232° Southwest 264 304 17,900 -750 Descending Atlanta Center
Mon 04:35:31 PM 35.0022 -84.3253 233° Southwest 264 304 17,000 -6,000 Descending Atlanta Center
Mon 04:36:31 PM 34.9500 -84.3936 227° Southwest 269 310 6,000 -5,500 Descending Atlanta Center
Mon 04:37:31 PM 34.8956 -84.4542 222° Southwest 274 315 6,000 4,000 Level Atlanta Center
Mon 04:38:31 PM 34.8453 -84.5119 223° Southwest 279 321 14,000 3,100 Climbing Atlanta Center
Mon 04:39:31 PM 34.7844 -84.5825 224° Southwest 279 321 12,200 -1,600 Descending Atlanta Center
Mon 04:40:31 PM 34.7383 -84.6403 226° Southwest 274 315 10,800 -1,600 Descending Atlanta Center
Mon 04:41:31 PM 34.6836 -84.7031 223° Southwest 274 315 9,000 -1,650 Descending Atlanta Center
Mon 04:42:31 PM 34.6353 -84.7683 228° Southwest 272 313 7,500 -1,339 Descending Atlanta Center
Mon 04:43:32 PM 34.5953 -84.8286 231° Southwest 249 287 6,300 -1,250 Descending Atlanta Center
Mon 04:44:31 PM 34.5572 -84.8914 234° Southwest 242 278 5,000 -857 Descending Atlanta Center
Mon 04:45:31 PM 34.5236 -84.9439 232° Southwest 231 266 4,600 -400 Descending Atlanta Center

Login

Don't have an account? Register now (free) for customized features, flight alerts, and more!